.
WxDataArchive / Data Records for 2009-03-19
2009-03-18 March 2009 2009-03-20

Data Records for Thursday, 19 March 2009

Time	Temp	Chill	HIndex	Humid	Dewpt	 Wind 	HiWind	WindDir	Rain 	Barom 
-----	----	-----	------	-----	-----	------	------	-------	-----	----- 
00:00	45.5	45.5	45.5	62	33.2	0	1	315	0.00	30.152 
00:05	45.5	45.5	45.5	62	33.2	0	1	315	0.00	30.147 
00:10	45.7	45.7	45.7	62	33.4	0	1	315	0.00	30.148 
00:15	45.7	45.7	45.7	62	33.4	0	2	315	0.00	30.147 
00:20	45.5	45.5	45.5	62	33.2	0	3	315	0.00	30.149 
00:25	45.5	45.5	45.5	62	33.2	0	1	270	0.00	30.150 
00:30	45.4	45.4	45.4	62	33.2	0	1	270	0.00	30.148 
00:35	45.4	45.4	45.4	62	33.2	0	1	270	0.00	30.151 
00:40	45.4	45.4	45.4	62	33.2	0	1	270	0.00	30.148 
00:45	45.2	45.2	45.2	63	33.4	0	2	292	0.00	30.147 
00:50	45.1	45.1	45.1	62	32.9	0	1	292	0.00	30.147 
00:55	44.9	44.9	44.9	62	32.7	0	1	292	0.00	30.150 
01:00	44.8	44.8	44.8	62	32.6	0	1	292	0.00	30.149 
01:05	44.6	44.6	44.6	62	32.4	0	1	292	0.00	30.151 
01:10	44.5	44.5	44.5	61	31.9	0	1	292	0.00	30.149 
01:15	44.2	44.2	44.2	61	31.6	0	0	---	0.00	30.154 
01:20	44.1	44.1	44.1	61	31.5	0	0	---	0.00	30.158 
01:25	43.8	43.8	43.8	60	30.8	0	1	292	0.00	30.159 
01:30	43.5	43.5	43.5	61	31.0	0	1	292	0.00	30.158 
01:35	43.2	43.2	43.2	61	30.7	0	0	---	0.00	30.158 
01:40	42.8	42.8	42.8	62	30.7	0	0	---	0.00	30.155 
01:45	42.6	42.6	42.6	62	30.5	0	0	---	0.00	30.153 
01:50	42.2	42.2	42.2	62	30.1	0	1	292	0.00	30.159 
01:55	41.9	41.9	41.9	62	29.8	0	0	---	0.00	30.160 
02:00	41.8	41.8	41.8	62	29.7	0	0	---	0.00	30.161 
02:05	41.5	41.5	41.5	62	29.5	0	1	292	0.00	30.168 
02:10	41.2	41.2	41.2	62	29.2	0	0	---	0.00	30.169 
02:15	41.1	41.1	41.1	61	28.7	0	1	292	0.00	30.170 
02:20	41.1	41.1	41.1	60	28.3	0	1	292	0.00	30.170 
02:25	41.2	41.2	41.2	58	27.6	0	1	292	0.00	30.172 
02:30	41.3	41.3	41.3	57	27.2	0	1	292	0.00	30.174 
02:35	41.3	41.3	41.3	57	27.2	0	1	292	0.00	30.175 
02:40	41.2	41.2	41.2	56	26.7	0	1	292	0.00	30.174 
02:45	41.1	41.1	41.1	57	27.0	0	0	---	0.00	30.177 
02:50	40.9	40.9	40.9	57	26.9	0	0	---	0.00	30.178 
02:55	40.8	40.8	40.8	57	26.8	0	1	292	0.00	30.178 
03:00	40.5	40.5	40.5	58	26.9	0	0	---	0.00	30.174 
03:05	40.2	40.2	40.2	58	26.6	0	0	---	0.00	30.183 
03:10	39.9	39.9	39.9	58	26.3	0	0	---	0.00	30.184 
03:15	39.6	39.6	39.6	58	26.1	0	0	---	0.00	30.186 
03:20	39.6	39.6	39.6	58	26.1	0	1	292	0.00	30.187 
03:25	39.6	39.6	39.6	57	25.6	0	1	292	0.00	30.186 
03:30	39.9	39.9	39.9	56	25.5	0	1	292	0.00	30.186 
03:35	40.1	40.1	40.1	55	25.2	0	1	292	0.00	30.185 
03:40	40.1	40.1	40.1	54	24.8	0	1	292	0.00	30.183 
03:45	40.1	40.1	40.1	53	24.4	0	1	292	0.00	30.185 
03:50	39.9	39.9	39.9	53	24.2	0	2	292	0.00	30.184 
03:55	39.9	39.9	39.9	53	24.2	0	1	292	0.00	30.186 
04:00	39.8	39.8	39.8	53	24.1	0	1	292	0.00	30.189 
04:05	39.8	39.8	39.8	52	23.6	0	1	292	0.00	30.189 
04:10	39.8	39.8	39.8	53	24.1	0	1	292	0.00	30.190 
04:15	39.6	39.6	39.6	53	23.9	0	2	292	0.00	30.190 
04:20	39.5	39.5	39.5	54	24.2	0	2	292	0.00	30.191 
04:25	39.3	39.3	39.3	54	24.1	0	2	292	0.00	30.192 
04:30	39.3	39.3	39.3	54	24.1	0	3	292	0.00	30.194 
04:35	39.2	39.2	39.2	54	24.0	0	2	292	0.00	30.195 
04:40	39.2	39.2	39.2	54	24.0	0	2	292	0.00	30.196 
04:45	39.1	39.1	39.1	54	23.9	0	1	292	0.00	30.199 
04:50	38.9	38.9	38.9	54	23.7	0	1	292	0.00	30.201 
04:55	38.8	38.8	38.8	55	24.0	0	1	292	0.00	30.203 
05:00	38.6	38.6	38.6	55	23.8	0	1	292	0.00	30.206 
05:05	38.6	38.6	38.6	55	23.8	0	2	292	0.00	30.207 
05:10	38.6	38.6	38.6	54	23.4	0	2	292	0.00	30.208 
05:15	38.5	38.5	38.5	55	23.8	0	1	292	0.00	30.210 
05:20	38.3	38.3	38.3	55	23.6	0	2	292	0.00	30.211 
05:25	38.2	38.2	38.2	55	23.5	0	2	292	0.00	30.215 
05:30	38.2	38.2	38.2	54	23.0	0	2	292	0.00	30.217 
05:35	38.2	38.2	38.2	54	23.0	1	3	292	0.00	30.221 
05:40	38.3	38.3	38.3	54	23.1	0	2	292	0.00	30.222 
05:45	38.2	38.2	38.2	54	23.0	0	2	292	0.00	30.224 
05:50	38.2	38.2	38.2	54	23.0	1	3	292	0.00	30.225 
05:55	38.0	38.0	38.0	55	23.3	0	2	270	0.00	30.226 
06:00	37.9	37.9	37.9	55	23.2	1	5	292	0.00	30.233 
06:05	37.8	37.8	37.8	55	23.1	0	3	292	0.00	30.237 
06:10	37.6	37.6	37.6	55	22.9	1	3	292	0.00	30.240 
06:15	37.5	37.5	37.5	56	23.2	0	4	270	0.00	30.242 
06:20	37.3	37.3	37.3	57	23.5	0	1	270	0.00	30.243 
06:25	37.0	37.0	37.0	57	23.2	0	1	270	0.00	30.245 
06:30	36.9	36.9	36.9	58	23.5	0	1	270	0.00	30.248 
06:35	36.6	36.6	36.6	58	23.2	0	1	270	0.00	30.249 
06:40	36.5	36.5	36.5	59	23.6	0	1	270	0.00	30.253 
06:45	36.2	36.2	36.2	59	23.3	0	1	270	0.00	30.258 
06:50	36.2	36.2	36.2	59	23.3	0	1	270	0.00	30.259 
06:55	36.0	36.0	36.0	59	23.1	0	1	270	0.00	30.260 
07:00	36.0	36.0	36.0	59	23.1	0	1	270	0.00	30.263 
07:05	36.0	36.0	36.0	60	23.5	0	1	270	0.00	30.264 
07:10	36.0	36.0	36.0	60	23.5	0	1	292	0.00	30.267 
07:15	36.0	36.0	36.0	60	23.5	0	1	292	0.00	30.270 
07:20	36.2	36.2	36.2	60	23.7	0	1	292	0.00	30.272 
07:25	36.5	36.5	36.5	60	24.0	0	3	270	0.00	30.274 
07:30	36.8	36.8	36.8	59	23.8	0	2	270	0.00	30.276 
07:35	37.0	37.0	37.0	58	23.6	1	3	338	0.00	30.275 
07:40	37.3	37.3	37.3	58	23.9	0	1	315	0.00	30.277 
07:45	37.6	37.6	37.6	57	23.8	0	2	315	0.00	30.276 
07:50	37.9	37.9	37.9	57	24.0	1	2	315	0.00	30.275 
07:55	38.2	38.2	38.2	56	23.9	1	3	315	0.00	30.286 
08:00	38.3	38.3	38.3	56	24.0	1	4	315	0.00	30.287 
08:05	38.5	38.5	38.5	57	24.6	1	4	270	0.00	30.287 
08:10	38.8	38.8	38.8	56	24.5	1	4	270	0.00	30.288 
08:15	38.9	38.9	38.9	56	24.6	2	5	292	0.00	30.290 
08:20	39.2	39.2	39.2	55	24.4	1	4	0	0.00	30.289 
08:25	39.5	39.5	39.5	55	24.7	2	6	338	0.00	30.290 
08:30	39.6	39.6	39.6	54	24.3	2	6	270	0.00	30.291 
08:35	39.9	39.9	39.9	56	25.5	1	4	338	0.00	30.292 
08:40	40.3	40.3	40.3	55	25.4	1	4	0	0.00	30.293 
08:45	40.6	40.6	40.6	54	25.3	2	4	292	0.00	30.288 
08:50	40.9	40.9	40.9	54	25.6	1	3	315	0.00	30.287 
08:55	41.2	41.2	41.2	53	25.4	1	4	270	0.00	30.288 
09:00	41.3	41.3	41.3	53	25.5	1	5	292	0.00	30.291 
09:05	41.6	41.6	41.6	54	26.2	1	4	338	0.00	30.292 
09:10	42.1	42.1	42.1	55	27.1	1	2	338	0.00	30.295 
09:15	42.5	42.5	42.5	53	26.6	1	4	315	0.00	30.295 
09:20	42.5	42.5	42.5	52	26.1	2	5	270	0.00	30.296 
09:25	42.9	42.9	42.9	52	26.5	1	4	270	0.00	30.298 
09:30	43.3	43.3	43.3	52	26.9	1	3	315	0.00	30.299 
09:35	43.8	43.8	43.8	52	27.3	1	2	338	0.00	30.298 
09:40	44.2	44.2	44.2	53	28.2	1	3	338	0.00	30.299 
09:45	44.5	44.5	44.5	52	28.0	1	3	0	0.00	30.299 
09:50	44.9	44.9	44.9	51	27.9	1	3	315	0.00	30.298 
09:55	45.4	45.4	45.4	52	28.8	0	3	292	0.00	30.298 
10:00	45.7	45.7	45.7	50	28.1	0	3	315	0.00	30.297 
10:05	46.0	46.0	46.0	48	27.4	1	3	0	0.00	30.300 
10:10	46.2	46.2	46.2	49	28.1	1	3	338	0.00	30.302 
10:15	46.5	46.5	46.5	48	27.9	1	4	292	0.00	30.301 
10:20	46.5	46.5	46.5	47	27.4	1	3	270	0.00	30.301 
10:25	46.8	46.8	46.8	46	27.1	1	3	315	0.00	30.300 
10:30	46.5	46.5	46.5	47	27.4	2	6	270	0.00	30.302 
10:35	46.8	46.8	46.8	45	26.6	1	3	270	0.00	30.299 
10:40	46.7	46.7	46.7	43	25.4	2	5	315	0.00	30.300 
10:45	46.8	46.8	46.8	42	24.9	2	7	292	0.00	30.300 
10:50	47.0	47.0	47.0	42	25.1	2	6	0	0.00	30.299 
10:55	47.1	47.1	47.1	42	25.2	2	7	270	0.00	30.299 
11:00	47.4	47.4	47.4	41	24.9	2	7	338	0.00	30.299 
11:05	48.0	48.0	48.0	40	24.8	1	6	315	0.00	30.300 
11:10	47.9	47.9	47.9	35	21.6	2	6	315	0.00	30.300 
11:15	48.0	48.0	48.0	36	22.3	2	6	22	0.00	30.298 
11:20	48.3	48.3	48.3	38	23.9	1	5	22	0.00	30.298 
11:25	48.6	48.6	48.6	35	22.2	1	5	0	0.00	30.299 
11:30	48.8	48.8	48.8	35	22.4	2	4	315	0.00	30.299 
11:35	49.1	49.1	49.1	36	23.3	2	4	315	0.00	30.299 
11:40	49.1	49.1	49.1	33	21.3	2	6	338	0.00	30.298 
11:45	48.9	48.9	48.9	34	21.8	2	9	338	0.00	30.297 
11:50	49.2	49.2	49.2	34	22.0	2	10	338	0.00	30.297 
11:55	49.2	49.2	49.2	32	20.6	3	10	315	0.00	30.297 
12:00	49.2	49.2	49.2	32	20.6	2	7	292	0.00	30.296 
12:05	49.6	49.6	49.6	34	22.4	2	4	338	0.00	30.296 
12:10	49.6	49.6	49.6	28	17.9	2	6	338	0.00	30.297 
12:15	49.4	48.2	49.4	27	16.8	4	7	315	0.00	30.299 
12:20	49.2	49.2	49.2	31	19.9	3	9	315	0.00	30.298 
12:25	49.5	49.5	49.5	31	20.1	2	6	315	0.00	30.298 
12:30	49.6	49.6	49.6	31	20.2	3	6	315	0.00	30.298 
12:35	49.4	49.4	49.4	30	19.3	3	11	0	0.00	30.297 
12:40	49.8	49.8	49.8	31	20.4	2	6	270	0.00	30.297 
12:45	50.1	50.1	50.1	27	17.4	3	10	315	0.00	30.297 
12:50	49.9	49.9	49.9	27	17.3	3	10	292	0.00	30.297 
12:55	49.6	49.6	49.6	27	17.0	3	9	315	0.00	30.297 
13:00	49.9	49.9	49.9	27	17.3	2	7	315	0.00	30.297 
13:05	49.8	49.8	49.8	32	21.1	3	10	292	0.00	30.298 
13:10	50.4	50.4	50.4	33	22.4	2	7	292	0.00	30.299 
13:15	50.4	50.4	50.4	29	19.4	3	10	315	0.00	30.298 
13:20	50.2	50.2	50.2	27	17.5	2	6	338	0.00	30.296 
13:25	50.1	50.1	50.1	28	18.3	3	7	315	0.00	30.297 
13:30	50.4	50.4	50.4	29	19.4	4	7	270	0.00	30.296 
13:35	50.2	50.2	50.2	28	18.4	3	8	315	0.00	30.295 
13:40	50.4	50.4	50.4	30	20.2	3	7	292	0.00	30.290 
13:45	50.1	50.1	50.1	30	19.9	2	5	338	0.00	30.286 
13:50	50.5	50.5	50.5	28	18.6	3	11	270	0.00	30.286 
13:55	50.8	50.8	50.8	26	17.2	3	7	338	0.00	30.285 
14:00	50.8	50.8	50.8	26	17.2	3	6	315	0.00	30.287 
14:05	50.7	50.7	50.7	25	16.2	2	6	338	0.00	30.285 
14:10	51.3	51.3	51.3	27	18.5	3	11	270	0.00	30.284 
14:15	51.1	51.1	51.1	25	16.5	3	7	315	0.00	30.286 
14:20	51.0	51.0	51.0	27	18.2	2	6	315	0.00	30.283 
14:25	50.8	50.8	50.8	26	17.2	3	7	270	0.00	30.283 
14:30	50.4	50.4	50.4	26	16.8	3	10	315	0.00	30.283 
14:35	50.4	50.4	50.4	27	17.7	3	7	270	0.00	30.285 
14:40	50.7	50.7	50.7	25	16.2	3	7	315	0.00	30.286 
14:45	50.8	50.8	50.8	27	18.0	3	10	292	0.00	30.283 
14:50	51.1	51.1	51.1	24	15.6	4	9	270	0.00	30.283 
14:55	51.4	51.4	51.4	22	13.8	3	12	270	0.00	30.284 
15:00	51.1	51.1	51.1	22	13.6	4	10	270	0.00	30.284 
15:05	51.0	51.0	51.0	22	13.5	3	7	292	0.00	30.287 
15:10	51.0	51.0	51.0	22	13.5	4	7	270	0.00	30.287 
15:15	50.4	50.4	50.4	20	10.9	4	8	270	0.00	30.290 
15:20	50.2	50.2	50.2	21	11.8	4	9	270	0.00	30.289 
15:25	50.2	50.2	50.2	21	11.8	3	6	270	0.00	30.291 
15:30	50.2	50.2	50.2	22	12.8	3	10	315	0.00	30.292 
15:35	49.9	49.9	49.9	23	13.6	3	9	292	0.00	30.292 
15:40	49.5	48.3	49.5	22	12.3	4	11	292	0.00	30.294 
15:45	49.4	49.4	49.4	21	11.1	3	8	315	0.00	30.301 
15:50	49.4	49.4	49.4	23	13.2	3	14	270	0.00	30.301 
15:55	48.9	48.9	48.9	25	14.6	2	8	315	0.00	30.302 
16:00	48.5	48.5	48.5	25	14.3	3	11	292	0.00	30.303 
16:05	47.9	47.9	47.9	27	15.5	3	11	292	0.00	30.307 
16:10	47.3	45.8	47.3	28	15.9	4	13	315	0.00	30.308 
16:15	47.0	45.4	47.0	28	15.6	4	9	270	0.00	30.314 
16:20	46.5	44.8	46.5	32	18.3	4	10	315	0.00	30.314 
16:25	46.5	46.5	46.5	36	21.0	3	10	315	0.00	30.318 
16:30	46.2	46.2	46.2	35	20.1	2	9	315	0.00	30.320 
16:35	45.8	45.8	45.8	34	19.0	3	10	315	0.00	30.322 
16:40	44.9	44.9	44.9	35	18.9	3	7	315	0.00	30.325 
16:45	44.2	42.2	44.2	35	18.3	4	10	292	0.00	30.332 
16:50	43.8	43.8	43.8	34	17.3	3	11	0	0.00	30.330 
16:55	43.8	43.8	43.8	37	19.2	3	7	292	0.00	30.336 
17:00	43.8	43.8	43.8	39	20.5	2	7	338	0.00	30.338 
17:05	43.1	40.9	43.1	39	19.8	4	10	338	0.00	30.340 
17:10	42.5	40.2	42.5	39	19.3	4	12	315	0.00	30.341 
17:15	42.2	42.2	42.2	41	20.2	2	7	315	0.00	30.342 
17:20	42.1	42.1	42.1	40	19.5	2	7	338	0.00	30.342 
17:25	41.6	41.6	41.6	39	18.5	3	12	338	0.00	30.343 
17:30	41.5	41.5	41.5	39	18.4	3	7	315	0.00	30.344 
17:35	41.2	41.2	41.2	39	18.1	2	4	315	0.00	30.348 
17:40	40.8	40.8	40.8	39	17.8	2	4	315	0.00	30.349 
17:45	40.5	40.5	40.5	40	18.1	2	5	338	0.00	30.352 
17:50	40.3	40.3	40.3	41	18.5	1	3	0	0.00	30.354 
17:55	40.2	40.2	40.2	41	18.4	2	6	338	0.00	30.355 
18:00	40.1	40.1	40.1	41	18.3	2	12	315	0.00	30.357 
18:05	39.8	39.8	39.8	42	18.6	1	4	338	0.00	30.358 
18:10	39.6	39.6	39.6	43	19.0	1	4	0	0.00	30.359 
18:15	39.5	39.5	39.5	43	18.9	1	5	270	0.00	30.360 
18:20	39.3	39.3	39.3	44	19.2	1	5	45	0.00	30.363 
18:25	39.1	39.1	39.1	45	19.6	2	7	338	0.00	30.363 
18:30	38.8	38.8	38.8	45	19.3	1	3	22	0.00	30.365 
18:35	38.5	38.5	38.5	47	20.0	1	3	22	0.00	30.367 
18:40	38.2	38.2	38.2	47	19.8	1	4	0	0.00	30.371 
18:45	37.9	37.9	37.9	48	20.0	1	5	0	0.00	30.372 
18:50	37.6	37.6	37.6	49	20.2	1	3	270	0.00	30.373 
18:55	37.5	37.5	37.5	50	20.6	1	5	338	0.00	30.374 
19:00	37.2	37.2	37.2	50	20.3	1	4	0	0.00	30.376 
19:05	37.0	37.0	37.0	50	20.1	1	6	338	0.00	30.375 
19:10	36.9	36.9	36.9	51	20.5	1	3	315	0.00	30.376 
19:15	36.8	36.8	36.8	51	20.4	0	3	338	0.00	30.377 
19:20	36.5	36.5	36.5	52	20.6	1	3	338	0.00	30.378 
19:25	36.3	36.3	36.3	53	20.8	1	3	338	0.00	30.378 
19:30	36.2	36.2	36.2	53	20.7	1	6	315	0.00	30.378 
19:35	35.9	35.9	35.9	54	20.9	1	6	338	0.00	30.379 
19:40	35.8	35.8	35.8	54	20.8	0	2	292	0.00	30.381 
19:45	35.6	35.6	35.6	55	21.0	1	4	292	0.00	30.381 
19:50	35.3	35.3	35.3	56	21.2	0	2	0	0.00	30.382 
19:55	35.0	35.0	35.0	56	20.9	0	3	270	0.00	30.388 
20:00	34.7	34.7	34.7	57	21.0	1	4	0	0.00	30.391 
20:05	34.4	34.4	34.4	57	20.8	1	4	338	0.00	30.388 
20:10	34.3	34.3	34.3	58	21.1	1	4	292	0.00	30.389 
20:15	34.1	34.1	34.1	58	20.9	1	5	315	0.00	30.392 
20:20	34.0	34.0	34.0	58	20.8	1	5	0	0.00	30.393 
20:25	33.7	33.7	33.7	58	20.5	1	4	338	0.00	30.393 
20:30	33.5	33.5	33.5	56	19.5	1	3	22	0.00	30.393 
20:35	33.4	33.4	33.4	56	19.4	2	5	0	0.00	30.396 
20:40	33.1	33.1	33.1	56	19.1	1	4	270	0.00	30.399 
20:45	32.9	32.9	32.9	55	18.5	1	4	315	0.00	30.400 
20:50	32.7	32.7	32.7	54	17.9	1	6	292	0.00	30.403 
20:55	32.5	32.5	32.5	55	18.2	1	6	338	0.00	30.405 
21:00	32.4	32.4	32.4	55	18.1	1	3	338	0.00	30.409 
21:05	32.2	32.2	32.2	55	17.9	1	5	270	0.00	30.403 
21:10	31.9	31.9	31.9	54	17.2	1	6	292	0.00	30.405 
21:15	31.8	31.8	31.8	54	17.1	1	3	315	0.00	30.405 
21:20	31.5	31.5	31.5	54	16.8	1	4	270	0.00	30.405 
21:25	31.2	31.2	31.2	52	15.6	1	5	292	0.00	30.408 
21:30	30.9	30.9	30.9	51	14.9	1	7	315	0.00	30.410 
21:35	30.7	30.7	30.7	51	14.7	1	6	22	0.00	30.411 
21:40	30.7	30.7	30.7	51	14.7	1	4	338	0.00	30.413 
21:45	30.4	30.4	30.4	51	14.5	1	4	292	0.00	30.413 
21:50	30.3	30.3	30.3	52	14.8	0	3	338	0.00	30.414 
21:55	30.1	30.1	30.1	53	15.1	0	2	338	0.00	30.417 
22:00	29.8	29.8	29.8	53	14.8	0	3	248	0.00	30.418 
22:05	29.7	29.7	29.7	53	14.7	0	2	338	0.00	30.418 
22:10	29.5	29.5	29.5	54	14.9	0	3	338	0.00	30.415 
22:15	29.4	29.4	29.4	54	14.8	0	1	315	0.00	30.413 
22:20	29.3	29.3	29.3	54	14.7	0	3	315	0.00	30.413 
22:25	29.3	29.3	29.3	54	14.7	0	2	0	0.00	30.413 
22:30	29.1	29.1	29.1	54	14.6	0	2	0	0.00	30.414 
22:35	29.0	29.0	29.0	54	14.5	0	3	338	0.00	30.412 
22:40	29.0	29.0	29.0	54	14.5	1	4	338	0.00	30.411 
22:45	29.0	29.0	29.0	55	14.9	0	4	292	0.00	30.410 
22:50	28.8	28.8	28.8	55	14.7	0	2	292	0.00	30.411 
22:55	28.7	28.7	28.7	55	14.6	0	2	292	0.00	30.410 
23:00	28.5	28.5	28.5	56	14.8	0	2	292	0.00	30.409 
23:05	28.4	28.4	28.4	56	14.7	0	2	292	0.00	30.410 
23:10	28.4	28.4	28.4	57	15.1	0	2	292	0.00	30.409 
23:15	28.2	28.2	28.2	57	14.9	0	1	292	0.00	30.408 
23:20	28.2	28.2	28.2	57	14.9	0	1	292	0.00	30.408 
23:25	28.1	28.1	28.1	57	14.9	0	1	292	0.00	30.408 
23:30	28.1	28.1	28.1	58	15.3	0	1	292	0.00	30.408 
23:35	27.9	27.9	27.9	58	15.1	0	1	292	0.00	30.408 
23:40	27.8	27.8	27.8	58	15.0	0	1	292	0.00	30.407 
23:45	27.8	27.8	27.8	58	15.0	0	1	292	0.00	30.407 
23:50	27.8	27.8	27.8	58	15.0	0	2	292	0.00	30.407 
23:55	27.6	27.6	27.6	58	14.8	0	2	315	0.00	30.406 

CoCoRaHS
IN-AL-39
A2 Web Hosting
Creative Commons License
GoDaddy
search engine by freefind advanced

loaded 2018-11-17 14:35:12 • last modified 2010-11-18 10:43:29
Privacy PolicyDisclaimer
• wx.awcolley.com is powered by PmWiki v.2002016 •
• all content (unless otherwise noted) © 2018 A W Colley